Time;durP1;ratioP1;P1;durP2;ratioP2;P2;SDS_P1;SDS_P2;PMS_P1;PMS_P2;Temp;Humidity;BMP_temperature;BMP_pressure;BME280_temperature;BME280_humidity;BME280_pressure;Samples;Min_cycle;Max_cycle;Signal;HPM_P1;HPM_P2
2022/10/19 00:00:03;;;;;;;12.93;7.95;;;;;;;10.47;50.86;100124.38;4993885;28;20451;-79
2022/10/19 00:02:29;;;;;;;8.88;6.90;;;;;;;10.60;51.16;100160.03;4994943;28;20027;-79
2022/10/19 00:04:54;;;;;;;10.15;6.70;;;;;;;10.18;51.00;100069.34;4993608;28;20030;-79
2022/10/19 00:07:19;;;;;;;11.45;7.95;;;;;;;11.05;50.50;100205.28;4993330;28;20058;-79
2022/10/19 00:09:45;;;;;;;12.75;7.03;;;;;;;10.50;51.01;100107.38;4993454;28;20030;-79
2022/10/19 00:12:11;;;;;;;12.38;7.35;;;;;;;10.78;50.82;100129.84;4994699;28;20026;-79
2022/10/19 00:14:37;;;;;;;10.27;7.63;;;;;;;10.62;50.97;100094.66;4994827;28;20447;-79
2022/10/19 00:17:02;;;;;;;10.75;7.57;;;;;;;11.02;50.57;100158.06;4994600;28;20053;-79
2022/10/19 00:19:28;;;;;;;11.63;7.75;;;;;;;10.49;50.93;100066.94;4993411;28;20034;-79
2022/10/19 00:21:54;;;;;;;12.45;8.25;;;;;;;11.22;50.64;100182.38;4994705;28;20412;-79
2022/10/19 00:24:20;;;;;;;12.70;7.63;;;;;;;10.72;50.42;100100.63;4994634;28;20491;-79
2022/10/19 00:26:46;;;;;;;14.93;7.07;;;;;;;11.12;50.87;100173.75;4993245;28;20026;-79
2022/10/19 00:29:13;;;;;;;12.43;7.10;;;;;;;11.12;50.78;100173.75;4994580;28;20018;-79
2022/10/19 00:31:38;;;;;;;11.13;6.15;;;;;;;10.36;50.88;100066.59;4994143;28;20022;-78
2022/10/19 00:34:04;;;;;;;10.30;7.20;;;;;;;10.18;51.04;100035.03;4994315;28;20101;-79
2022/10/19 00:36:38;;;;;;;10.55;7.00;;;;;;;11.05;51.23;100162.19;4994292;28;20026;-78
2022/10/19 00:39:06;;;;;;;10.20;6.45;;;;;;;11.00;51.17;100153.94;4994357;28;20062;-78
2022/10/19 00:41:33;;;;;;;11.20;6.95;;;;;;;10.93;51.21;100159.06;4994275;28;20045;-79
2022/10/19 00:44:11;;;;;;;10.02;7.22;;;;;;;10.88;51.25;100157.91;4994190;28;20025;-79
2022/10/19 00:46:42;;;;;;;9.80;7.10;;;;;;;10.49;51.85;100122.38;4993937;28;20022;-79
2022/10/19 00:49:27;;;;;;;10.60;7.07;;;;;;;10.40;52.55;100099.59;4992727;28;20029;-78
2022/10/19 00:51:56;;;;;;;10.23;6.88;;;;;;;10.71;51.95;100157.91;5009107;28;20396;-78
2022/10/19 00:54:24;;;;;;;10.10;6.65;;;;;;;10.72;52.11;100146.34;4994066;28;20036;-79
2022/10/19 00:56:52;;;;;;;9.55;6.22;;;;;;;10.50;52.28;100115.28;4994117;28;20030;-78
2022/10/19 00:59:20;;;;;;;7.60;6.13;;;;;;;10.49;52.31;100109.19;4994164;28;20561;-78
2022/10/19 01:01:47;;;;;;;7.78;5.85;;;;;;;9.72;52.64;99986.31;4994170;28;20496;-78
2022/10/19 01:04:14;;;;;;;6.93;5.78;;;;;;;10.72;52.57;100130.50;4993901;28;20072;-78
2022/10/19 01:06:40;;;;;;;10.40;5.00;;;;;;;10.71;52.56;100125.38;4992667;28;20042;-78
2022/10/19 01:09:06;;;;;;;10.77;6.40;;;;;;;9.70;52.90;99983.03;4994061;28;20018;-78
2022/10/19 01:11:44;;;;;;;10.18;6.15;;;;;;;10.62;53.32;100121.06;4994299;28;20030;-79
2022/10/19 01:14:34;;;;;;;6.25;5.57;;;;;;;10.54;52.89;100127.19;4996906;28;20029;-79
2022/10/19 01:17:21;;;;;;;8.57;6.00;;;;;;;10.31;53.72;100099.72;4997257;28;20026;-78
2022/10/19 01:20:23;;;;;;;9.43;6.40;;;;;;;10.38;53.71;100120.03;4992040;28;20446;-78
2022/10/19 01:23:32;;;;;;;11.73;6.75;;;;;;;10.15;54.02;100092.56;4992138;28;20088;-78
2022/10/19 01:26:06;;;;;;;9.43;6.75;;;;;;;10.31;53.65;100115.56;4993421;28;20022;-79
2022/10/19 01:28:55;;;;;;;12.20;7.22;;;;;;;9.97;53.88;100068.13;4992979;28;20093;-80
2022/10/19 01:31:25;;;;;;;11.25;7.85;;;;;;;10.17;53.74;100091.44;4993224;28;20038;-79
2022/10/19 01:34:13;;;;;;;13.93;7.13;;;;;;;10.10;53.21;100071.97;4991947;28;20079;-79
2022/10/19 01:37:01;;;;;;;10.88;7.35;;;;;;;10.31;53.36;100102.38;4993274;28;20117;-79
2022/10/19 01:40:14;;;;;;;13.10;6.88;;;;;;;10.25;53.53;100095.94;4993448;28;20514;-78
2022/10/19 01:42:44;;;;;;;11.60;7.70;;;;;;;10.27;53.13;100090.50;4989927;28;20038;-78
2022/10/19 01:45:17;;;;;;;11.02;6.88;;;;;;;10.21;53.89;100093.78;4993049;28;20034;-78
2022/10/19 01:47:56;;;;;;;11.35;7.20;;;;;;;10.16;53.78;100089.78;4992982;28;20018;-79
2022/10/19 01:50:31;;;;;;;10.63;7.00;;;;;;;10.15;53.84;100090.75;4993114;28;20459;-79
2022/10/19 01:52:58;;;;;;;10.00;6.47;;;;;;;9.36;53.31;99967.25;4992809;28;20515;-78
2022/10/19 01:55:26;;;;;;;13.52;7.07;;;;;;;9.43;53.74;99977.97;4992928;28;20026;-78
2022/10/19 01:58:01;;;;;;;9.80;6.95;;;;;;;10.06;54.26;100091.75;4992713;28;20105;-79
2022/10/19 02:00:28;;;;;;;10.18;6.05;;;;;;;9.38;53.88;100009.25;4992659;28;20010;-78
2022/10/19 02:02:55;;;;;;;9.25;6.25;;;;;;;9.82;54.21;100038.91;4992689;28;20048;-79
2022/10/19 02:05:26;;;;;;;8.52;5.30;;;;;;;9.55;53.72;99990.69;4992641;28;20036;-78
2022/10/19 02:07:58;;;;;;;10.30;6.07;;;;;;;10.00;54.74;100073.09;4992493;28;20089;-78
2022/10/19 02:10:25;;;;;;;8.00;5.85;;;;;;;10.04;54.03;100071.78;4992692;28;20036;-79
2022/10/19 02:12:53;;;;;;;9.25;5.88;;;;;;;9.68;54.05;100019.28;4991339;28;20022;-78
2022/10/19 02:15:22;;;;;;;12.57;6.63;;;;;;;10.02;54.22;100079.03;4992578;28;20486;-78
2022/10/19 02:17:50;;;;;;;9.13;5.97;;;;;;;9.65;54.34;100034.56;4992406;28;20026;-78
2022/10/19 02:20:16;;;;;;;8.10;6.55;;;;;;;9.19;54.35;99952.38;4992486;28;20018;-78
2022/10/19 02:22:42;;;;;;;11.10;6.55;;;;;;;9.77;54.26;100034.13;4992366;28;20076;-78
2022/10/19 02:25:08;;;;;;;6.90;5.32;;;;;;;9.78;54.25;100037.59;4992329;28;20031;-79
2022/10/19 02:27:35;;;;;;;8.10;5.60;;;;;;;10.03;54.07;100068.31;4992196;28;20487;-79
2022/10/19 02:30:01;;;;;;;10.35;6.57;;;;;;;9.70;54.40;100019.94;4992068;28;20029;-79
2022/10/19 02:32:27;;;;;;;16.88;6.55;;;;;;;10.10;53.74;100081.69;4992239;28;20030;-78
2022/10/19 02:34:53;;;;;;;6.70;5.10;;;;;;;9.93;53.51;100045.72;4992145;28;20069;-79
2022/10/19 02:37:18;;;;;;;11.55;5.97;;;;;;;9.61;53.35;100001.59;4992184;28;20080;-78
2022/10/19 02:39:44;;;;;;;10.65;6.43;;;;;;;9.78;53.56;100012.06;4990899;28;20442;-79
2022/10/19 02:42:31;;;;;;;7.03;5.43;;;;;;;10.02;53.76;100057.94;4989720;28;20018;-79
2022/10/19 02:45:22;;;;;;;8.23;6.05;;;;;;;9.92;53.54;100063.34;4991835;28;20038;-78
2022/10/19 02:47:53;;;;;;;13.00;6.10;;;;;;;9.55;53.66;100010.97;4991976;28;20022;-78
2022/10/19 02:50:19;;;;;;;6.43;5.53;;;;;;;9.82;53.62;100050.28;4990672;28;20079;-79
2022/10/19 02:52:44;;;;;;;13.75;6.55;;;;;;;9.23;53.45;99969.50;4992006;28;20018;-78
2022/10/19 02:55:10;;;;;;;7.53;5.75;;;;;;;9.35;53.90;99994.59;4991991;28;20022;-79
2022/10/19 02:57:35;;;;;;;8.65;5.40;;;;;;;9.36;53.65;99998.06;4992282;28;20038;-79
2022/10/19 03:00:02;;;;;;;8.80;5.25;;;;;;;9.88;52.97;100075.19;4991919;28;20038;-79
2022/10/19 03:02:28;;;;;;;7.78;5.85;;;;;;;9.81;53.20;100056.56;4992033;28;20026;-79
2022/10/19 03:04:53;;;;;;;8.10;5.13;;;;;;;9.49;53.09;100001.88;4990878;28;20029;-78
2022/10/19 03:07:20;;;;;;;12.07;5.15;;;;;;;9.88;53.11;100059.38;4991704;28;20050;-78
2022/10/19 03:09:45;;;;;;;6.97;4.68;;;;;;;9.84;53.17;100052.78;4990649;28;20060;-79
2022/10/19 03:12:12;;;;;;;8.65;4.78;;;;;;;9.57;53.25;100023.00;4991788;28;20054;-78
2022/10/19 03:14:38;;;;;;;7.50;4.95;;;;;;;9.39;53.55;100008.28;4991886;28;20084;-79
2022/10/19 03:17:04;;;;;;;9.05;5.03;;;;;;;9.74;53.60;100049.44;4991698;28;20026;-78
2022/10/19 03:19:30;;;;;;;9.10;5.18;;;;;;;9.67;53.81;100045.81;4991607;28;20503;-78
2022/10/19 03:21:55;;;;;;;12.88;8.32;;;;;;;9.63;53.74;100040.00;4991656;28;20026;-78
2022/10/19 03:24:21;;;;;;;9.45;5.78;;;;;;;9.56;53.75;100047.72;4990303;28;20026;-78
2022/10/19 03:26:46;;;;;;;9.30;6.20;;;;;;;9.13;53.77;99992.53;4991502;28;20482;-78
2022/10/19 03:29:11;;;;;;;9.98;5.53;;;;;;;8.89;53.99;99944.00;4991478;28;20423;-78
2022/10/19 03:31:37;;;;;;;6.93;5.18;;;;;;;9.11;54.31;99982.16;4990140;28;20038;-78
2022/10/19 03:34:03;;;;;;;7.80;5.18;;;;;;;8.99;54.07;99943.91;4990691;28;20029;-79
2022/10/19 03:36:31;;;;;;;8.95;5.18;;;;;;;9.48;53.84;100021.31;4990382;28;20037;-78
2022/10/19 03:38:59;;;;;;;8.13;5.68;;;;;;;9.35;53.80;99996.41;4991696;28;20089;-79
2022/10/19 03:41:27;;;;;;;9.40;5.70;;;;;;;8.97;53.72;99921.34;4990393;28;20499;-79
2022/10/19 03:43:53;;;;;;;8.27;5.30;;;;;;;9.61;53.97;100026.16;4990304;28;20462;-79
2022/10/19 03:46:19;;;;;;;7.82;5.93;;;;;;;8.84;53.66;99919.94;4990283;28;20076;-79
2022/10/19 03:48:44;;;;;;;8.40;4.70;;;;;;;8.98;53.98;99946.69;4991500;28;20137;-79
2022/10/19 03:51:13;;;;;;;9.00;5.28;;;;;;;9.48;53.70;100012.59;4991439;28;20038;-78
2022/10/19 03:53:39;;;;;;;8.43;5.13;;;;;;;9.45;53.60;99997.91;4994152;28;20014;-78
2022/10/19 03:56:09;;;;;;;8.35;5.05;;;;;;;9.52;53.51;100003.38;4993671;28;20026;-78
2022/10/19 03:58:36;;;;;;;6.57;5.22;;;;;;;9.54;53.75;100004.03;4994913;28;20165;-79
2022/10/19 04:01:06;;;;;;;13.10;5.60;;;;;;;9.52;53.75;100006.84;4995109;28;20568;-79
2022/10/19 04:03:31;;;;;;;10.40;5.57;;;;;;;8.86;53.70;99914.50;4995001;28;20030;-78
2022/10/19 04:06:05;;;;;;;8.50;5.13;;;;;;;8.71;53.69;99892.41;4994998;28;20407;-78
2022/10/19 04:08:31;;;;;;;9.18;5.47;;;;;;;8.93;53.88;99943.72;4993586;28;20466;-78
2022/10/19 04:11:01;;;;;;;9.27;5.88;;;;;;;8.71;54.26;99901.13;4994829;28;20019;-78
2022/10/19 04:13:27;;;;;;;8.90;5.47;;;;;;;9.15;54.38;99977.38;4994783;28;20100;-78
2022/10/19 04:15:52;;;;;;;8.45;5.13;;;;;;;8.76;54.23;99898.84;4994714;28;20069;-79
2022/10/19 04:18:17;;;;;;;8.50;5.20;;;;;;;7.10;54.22;99657.19;4994450;28;20030;-78
2022/10/19 04:20:43;;;;;;;7.38;5.55;;;;;;;8.64;54.29;99881.66;4994379;28;20022;-79
2022/10/19 04:23:08;;;;;;;9.85;5.68;;;;;;;9.14;54.13;99966.03;4994548;28;20157;-78
2022/10/19 04:25:34;;;;;;;9.25;5.53;;;;;;;8.91;53.90;99910.41;4994570;28;20027;-79
2022/10/19 04:27:59;;;;;;;7.85;5.55;;;;;;;8.91;53.90;99918.31;4994547;28;20491;-78
2022/10/19 04:30:25;;;;;;;12.85;6.35;;;;;;;9.03;53.85;99934.69;4994424;28;20084;-79
2022/10/19 04:32:50;;;;;;;11.20;5.90;;;;;;;9.14;54.01;99949.38;4994200;28;20491;-78
2022/10/19 04:35:15;;;;;;;13.38;6.13;;;;;;;9.02;53.98;99926.97;4994086;28;20026;-79
2022/10/19 04:37:41;;;;;;;9.60;5.53;;;;;;;9.04;54.04;99928.44;4992946;28;20088;-79
2022/10/19 04:40:07;;;;;;;14.20;6.47;;;;;;;8.91;53.26;99907.78;4994188;28;20128;-79
2022/10/19 04:42:33;;;;;;;16.48;7.85;;;;;;;9.39;53.37;99972.22;4994169;28;20557;-79
2022/10/19 04:44:58;;;;;;;11.80;6.47;;;;;;;9.45;53.15;99976.84;4993984;28;20026;-79
2022/10/19 04:47:23;;;;;;;14.10;7.72;;;;;;;8.95;53.42;99894.34;4994121;28;20022;-79
2022/10/19 04:49:49;;;;;;;13.93;7.60;;;;;;;9.20;53.66;99954.03;4992824;28;20026;-78
2022/10/19 04:52:14;;;;;;;17.48;7.47;;;;;;;8.97;53.85;99913.44;4993872;28;20033;-79
2022/10/19 04:54:40;;;;;;;16.33;8.98;;;;;;;9.39;53.51;99982.75;4993881;28;20392;-78
2022/10/19 04:57:05;;;;;;;13.05;7.75;;;;;;;9.33;53.86;99979.91;4993874;28;20500;-79
2022/10/19 04:59:31;;;;;;;16.58;8.70;;;;;;;9.36;53.67;99992.78;4993846;28;20026;-79
2022/10/19 05:01:56;;;;;;;15.93;8.38;;;;;;;9.04;53.96;99927.63;4993717;28;20019;-79
2022/10/19 05:04:21;;;;;;;13.20;8.20;;;;;;;9.37;53.98;99982.06;4991427;28;20029;-78
2022/10/19 05:06:47;;;;;;;13.10;8.32;;;;;;;9.00;53.71;99936.81;4993297;28;20055;-79
2022/10/19 05:09:12;;;;;;;18.30;8.82;;;;;;;8.72;53.76;99872.97;5012335;28;20033;-79
2022/10/19 05:11:37;;;;;;;14.70;8.65;;;;;;;8.67;53.87;99875.25;5013185;28;20097;-79
2022/10/19 05:14:03;;;;;;;14.52;8.45;;;;;;;9.02;53.84;99933.03;5013112;28;20414;-79
2022/10/19 05:16:28;;;;;;;14.07;8.07;;;;;;;9.05;53.61;99909.03;5013249;28;20060;-78
2022/10/19 05:18:57;;;;;;;17.85;8.13;;;;;;;9.53;53.50;99979.50;5013067;28;20022;-79
2022/10/19 05:21:23;;;;;;;14.55;9.05;;;;;;;9.37;53.76;99957.53;5013123;28;20022;-80
2022/10/19 05:23:53;;;;;;;13.52;8.43;;;;;;;9.06;53.20;99912.47;5012810;28;20029;-78
2022/10/19 05:26:20;;;;;;;16.73;9.02;;;;;;;9.56;53.78;99989.72;5012751;28;20135;-78
2022/10/19 05:28:55;;;;;;;19.40;11.15;;;;;;;9.61;53.52;99988.41;5012478;28;20033;-78
2022/10/19 05:31:22;;;;;;;19.70;10.38;;;;;;;9.61;53.68;99980.50;5012712;28;20161;-79
2022/10/19 05:33:48;;;;;;;22.23;11.07;;;;;;;9.35;53.73;99939.25;5012515;28;20022;-78
2022/10/19 05:36:25;;;;;;;20.23;11.48;;;;;;;8.77;53.65;99861.00;5012721;28;20037;-79
2022/10/19 05:38:51;;;;;;;16.23;13.07;;;;;;;9.57;53.81;99991.38;5012489;28;20106;-78
2022/10/19 05:41:18;;;;;;;19.25;13.98;;;;;;;9.52;53.58;99985.75;5012631;28;20609;-78
2022/10/19 05:43:45;;;;;;;20.77;14.65;;;;;;;9.66;54.05;99991.38;5012047;28;20075;-79
2022/10/19 05:46:13;;;;;;;20.77;13.95;;;;;;;9.71;53.62;100000.50;5012495;28;20510;-78
2022/10/19 05:48:39;;;;;;;21.13;18.42;;;;;;;9.78;53.81;99990.13;5012691;28;20128;-78
2022/10/19 05:51:07;;;;;;;21.15;15.85;;;;;;;9.81;53.98;99990.63;5012084;28;20032;-80
2022/10/19 05:53:33;;;;;;;27.50;16.85;;;;;;;9.43;54.12;99930.53;5010994;28;20491;-79
2022/10/19 05:55:59;;;;;;;21.88;14.98;;;;;;;9.33;54.05;99888.53;5011878;28;20076;-79
2022/10/19 05:58:24;;;;;;;20.55;13.20;;;;;;;9.98;53.87;99995.94;5010775;28;20030;-79
2022/10/19 06:00:54;;;;;;;21.83;12.70;;;;;;;10.04;54.10;99996.09;5011303;28;20041;-78
2022/10/19 06:03:20;;;;;;;16.25;11.27;;;;;;;9.60;53.95;99918.22;5011910;28;20046;-78
2022/10/19 06:05:47;;;;;;;14.88;10.10;;;;;;;9.65;54.05;99923.81;5007850;28;20113;-79
2022/10/19 06:08:12;;;;;;;24.20;10.35;;;;;;;10.14;54.26;99990.66;5001658;28;20518;-78
2022/10/19 06:10:37;;;;;;;16.73;8.90;;;;;;;9.73;54.13;99923.88;5000262;28;20109;-79
2022/10/19 06:13:03;;;;;;;13.13;8.95;;;;;;;9.72;54.27;99927.50;5011000;28;20030;-78
2022/10/19 06:15:32;;;;;;;21.60;12.25;;;;;;;9.79;54.54;99936.41;5011580;28;20021;-78
2022/10/19 06:17:57;;;;;;;20.63;13.65;;;;;;;10.11;54.73;99980.44;5011772;28;20414;-78
2022/10/19 06:20:23;;;;;;;27.17;20.65;;;;;;;10.27;54.95;99998.13;5011566;28;20025;-78
2022/10/19 06:22:48;;;;;;;25.92;20.50;;;;;;;9.95;54.71;99951.41;5008486;28;20030;-78
2022/10/19 06:25:13;;;;;;;20.75;15.45;;;;;;;10.23;54.69;99971.22;5011751;28;20021;-78
2022/10/19 06:27:39;;;;;;;21.67;15.98;;;;;;;10.23;54.35;99970.41;5009058;28;20029;-78
2022/10/19 06:30:05;;;;;;;21.92;16.92;;;;;;;10.50;54.14;99984.13;5011725;28;20060;-78
2022/10/19 06:32:32;;;;;;;23.38;16.90;;;;;;;10.01;54.43;99883.00;5011182;28;20068;-78
2022/10/19 06:34:58;;;;;;;17.17;13.48;;;;;;;10.56;53.99;99948.31;5010131;28;20384;-78
2022/10/19 06:37:23;;;;;;;16.90;10.05;;;;;;;10.53;53.46;99942.53;5009369;28;20100;-77
2022/10/19 06:39:48;;;;;;;13.43;10.45;;;;;;;10.80;52.96;99977.28;5010741;28;20022;-77
2022/10/19 06:42:14;;;;;;;15.13;9.10;;;;;;;10.86;52.62;99944.09;5011196;28;20403;-78
2022/10/19 06:44:39;;;;;;;13.27;8.43;;;;;;;10.91;52.12;99941.75;5006261;28;20058;-77
2022/10/19 06:47:04;;;;;;;13.38;7.63;;;;;;;11.15;51.92;99972.59;5011448;28;20037;-78
2022/10/19 06:49:30;;;;;;;7.03;5.40;;;;;;;11.05;51.53;99925.19;5011031;28;20033;-77
2022/10/19 06:51:55;;;;;;;12.25;9.63;;;;;;;11.12;50.88;99930.63;5003690;28;20022;-78
2022/10/19 06:54:21;;;;;;;7.05;5.78;;;;;;;11.55;50.70;99997.19;5002473;28;20116;-77
2022/10/19 06:56:46;;;;;;;9.75;5.88;;;;;;;10.75;50.02;99852.84;5007943;28;20033;-78
2022/10/19 06:59:12;;;;;;;6.00;5.05;;;;;;;11.76;49.37;99992.94;5007120;28;20490;-77
2022/10/19 07:01:38;;;;;;;6.60;5.15;;;;;;;11.43;48.77;99918.25;5003691;28;20053;-77
2022/10/19 07:04:03;;;;;;;11.85;6.47;;;;;;;11.51;48.59;99924.50;5002772;28;20521;-77
2022/10/19 07:06:29;;;;;;;10.90;7.20;;;;;;;11.52;48.29;99902.34;5011139;28;20042;-77
2022/10/19 07:08:54;;;;;;;7.00;5.35;;;;;;;11.40;48.06;99867.56;5009815;28;20562;-78
2022/10/19 07:11:21;;;;;;;10.30;6.65;;;;;;;11.95;47.94;99943.25;5010069;28;20133;-78
2022/10/19 07:13:47;;;;;;;8.77;5.93;;;;;;;12.32;47.61;99977.69;5002719;28;20157;-78
2022/10/19 07:16:15;;;;;;;10.93;7.22;;;;;;;12.07;46.83;99934.72;5004082;28;20105;-78
2022/10/19 07:18:41;;;;;;;7.95;5.00;;;;;;;12.39;46.65;99954.78;5008408;28;20022;-77
2022/10/19 07:21:10;;;;;;;8.02;6.38;;;;;;;12.24;46.58;99913.41;4993964;28;20424;-78
2022/10/19 07:23:37;;;;;;;9.25;7.03;;;;;;;12.59;46.08;99955.09;4993562;28;20404;-78
2022/10/19 07:26:08;;;;;;;6.90;6.20;;;;;;;12.45;46.46;99916.19;5010807;28;20026;-77
2022/10/19 07:28:34;;;;;;;7.95;6.50;;;;;;;12.70;46.24;99938.78;5011889;28;20026;-78
2022/10/19 07:31:08;;;;;;;8.90;5.03;;;;;;;12.91;45.83;99953.97;5007661;28;20030;-78
2022/10/19 07:33:34;;;;;;;8.88;4.78;;;;;;;12.64;45.32;99891.00;5004033;28;20462;-77
2022/10/19 07:36:01;;;;;;;8.52;5.20;;;;;;;13.08;45.18;99945.81;5007588;28;20063;-77
2022/10/19 07:38:26;;;;;;;10.40;8.13;;;;;;;13.18;45.34;99947.22;5009312;28;20109;-79
2022/10/19 07:40:59;;;;;;;7.57;5.75;;;;;;;13.28;44.63;99947.75;5009440;28;20052;-78
2022/10/19 07:43:24;;;;;;;6.88;5.03;;;;;;;13.21;44.99;99912.38;5012540;28;20026;-77
2022/10/19 07:45:57;;;;;;;7.25;5.10;;;;;;;13.19;44.34;99887.06;5006592;28;20208;-78
2022/10/19 07:48:22;;;;;;;7.78;4.05;;;;;;;13.59;44.19;99931.59;5006136;28;20542;-77
2022/10/19 07:50:48;;;;;;;11.05;6.63;;;;;;;13.09;44.37;99822.88;5002558;28;20102;-78
2022/10/19 07:53:13;;;;;;;10.18;4.88;;;;;;;13.75;43.97;99913.78;5004094;28;20029;-77
2022/10/19 07:55:39;;;;;;;17.15;7.90;;;;;;;13.46;44.01;99846.56;5012846;28;20032;-78
2022/10/19 07:58:04;;;;;;;10.00;6.47;;;;;;;13.54;43.66;99843.78;5010719;28;20046;-78
2022/10/19 08:00:30;;;;;;;13.75;7.32;;;;;;;13.84;43.54;99876.31;5007039;28;20481;-78
2022/10/19 08:02:55;;;;;;;9.45;4.70;;;;;;;14.28;43.41;99917.75;5008239;28;20477;-78
2022/10/19 08:05:21;;;;;;;6.15;3.90;;;;;;;13.99;43.27;99873.56;5013934;28;20514;-78
2022/10/19 08:07:46;;;;;;;11.95;5.32;;;;;;;14.19;43.17;99881.72;5004742;28;20108;-77
2022/10/19 08:10:11;;;;;;;13.50;10.57;;;;;;;14.26;43.33;99869.31;5008923;28;20045;-78
2022/10/19 08:12:37;;;;;;;9.85;6.72;;;;;;;14.61;43.18;99913.53;5013494;28;20164;-77
2022/10/19 08:15:05;;;;;;;7.70;5.28;;;;;;;14.45;43.07;99871.31;5012850;28;20052;-78
2022/10/19 08:17:33;;;;;;;8.02;4.40;;;;;;;14.25;43.28;99822.53;5012074;28;20021;-78
2022/10/19 08:19:58;;;;;;;5.25;3.90;;;;;;;14.38;42.90;99825.25;5012634;28;20029;-78
2022/10/19 08:22:24;;;;;;;7.25;5.07;;;;;;;14.60;42.87;99849.94;5013425;28;20025;-78
2022/10/19 08:24:49;;;;;;;7.63;4.00;;;;;;;14.53;42.88;99809.22;5012138;28;20517;-78
2022/10/19 08:27:15;;;;;;;5.40;4.40;;;;;;;14.63;42.57;99812.34;5000668;28;20519;-78
2022/10/19 08:29:40;;;;;;;5.32;3.75;;;;;;;15.02;42.30;99864.06;4999108;28;20026;-77
2022/10/19 08:32:05;;;;;;;9.93;8.90;;;;;;;14.91;42.47;99833.53;5013272;28;20029;-78
2022/10/19 08:34:32;;;;;;;9.70;6.97;;;;;;;15.40;42.53;99885.66;5012714;28;20104;-78
2022/10/19 08:36:57;;;;;;;6.45;4.45;;;;;;;15.47;41.95;99879.34;5011368;28;20057;-78
2022/10/19 08:39:23;;;;;;;6.65;4.78;;;;;;;15.07;42.11;99843.00;5012443;28;20053;-78
2022/10/19 08:42:18;;;;;;;8.55;5.13;;;;;;;15.65;41.53;99873.50;5013423;28;20029;-78
2022/10/19 08:45:06;;;;;;;7.95;5.28;;;;;;;15.70;41.55;99873.69;5013118;28;20041;-78
2022/10/19 08:47:49;;;;;;;9.10;5.47;;;;;;;15.81;41.48;99873.09;4996645;28;20058;-78
2022/10/19 08:50:44;;;;;;;6.68;3.80;;;;;;;15.90;41.03;99865.72;5010290;28;20057;-78
2022/10/19 08:53:18;;;;;;;8.27;4.85;;;;;;;15.76;41.31;99832.13;5011452;28;20070;-78
2022/10/19 08:56:21;;;;;;;5.03;3.67;;;;;;;16.00;40.76;99854.66;5006697;28;20026;-79
2022/10/19 08:58:50;;;;;;;6.82;4.18;;;;;;;16.17;40.95;99863.88;5008789;28;20115;-78
2022/10/19 09:01:23;;;;;;;7.28;4.20;;;;;;;16.17;40.42;99837.22;5006481;28;20014;-78
2022/10/19 09:04:00;;;;;;;7.63;5.10;;;;;;;16.40;40.85;99858.13;5012597;28;20046;-78
2022/10/19 09:06:36;;;;;;;6.63;4.85;;;;;;;15.96;40.15;99752.22;5011562;28;20049;-78
2022/10/19 09:09:04;;;;;;;13.93;7.22;;;;;;;16.70;40.62;99842.50;5011672;28;20189;-78
2022/10/19 09:11:34;;;;;;;7.93;4.95;;;;;;;16.83;40.00;99848.59;5002631;28;20030;-78
2022/10/19 09:14:24;;;;;;;9.00;5.63;;;;;;;16.79;39.72;99817.22;5003091;28;20088;-78
2022/10/19 09:16:50;;;;;;;11.88;8.77;;;;;;;16.64;39.85;99774.81;5011599;28;20403;-78
2022/10/19 09:19:28;;;;;;;9.32;6.60;;;;;;;16.91;39.49;99791.53;5012832;28;20026;-78
2022/10/19 09:22:01;;;;;;;10.18;5.57;;;;;;;17.33;39.10;99842.63;5010259;28;20044;-78
2022/10/19 09:24:33;;;;;;;8.15;4.75;;;;;;;16.93;38.71;99756.66;5011744;28;20076;-78
2022/10/19 09:26:59;;;;;;;8.65;5.40;;;;;;;16.89;38.73;99734.09;5012642;28;20521;-78
2022/10/19 09:29:28;;;;;;;7.70;5.60;;;;;;;17.56;38.81;99823.38;5008168;28;20034;-79
2022/10/19 09:31:57;;;;;;;12.98;8.55;;;;;;;17.04;38.25;99723.94;5009972;28;20477;-79
2022/10/19 09:34:25;;;;;;;9.65;6.20;;;;;;;17.76;38.28;99824.09;5007992;28;20034;-79
2022/10/19 09:36:56;;;;;;;14.95;6.95;;;;;;;17.42;38.23;99738.06;5012351;28;20027;-78
2022/10/19 09:39:23;;;;;;;12.68;9.20;;;;;;;18.04;38.12;99811.13;5011368;28;20040;-78
2022/10/19 09:41:54;;;;;;;17.77;6.95;;;;;;;17.79;37.77;99767.56;5011004;28;20532;-78
2022/10/19 09:44:21;;;;;;;13.68;6.18;;;;;;;17.63;37.50;99717.34;5010565;28;20506;-78
2022/10/19 09:47:15;;;;;;;6.20;4.70;;;;;;;18.31;37.23;99808.19;5012303;28;20569;-78
2022/10/19 09:49:43;;;;;;;9.38;5.07;;;;;;;18.40;37.18;99807.66;5012030;28;20034;-79
2022/10/19 09:52:32;;;;;;;7.22;4.72;;;;;;;18.47;36.45;99788.06;5010546;28;20017;-79
2022/10/19 09:55:14;;;;;;;8.70;4.68;;;;;;;18.54;36.48;99786.94;5006650;28;20060;-79
2022/10/19 09:57:43;;;;;;;8.40;5.05;;;;;;;18.66;36.78;99787.88;5010630;28;20049;-79
2022/10/19 10:00:20;;;;;;;10.35;6.40;;;;;;;18.79;36.45;99783.41;5011631;28;20065;-78
2022/10/19 10:02:51;;;;;;;9.75;4.38;;;;;;;18.57;36.08;99726.84;5010434;28;20576;-78
2022/10/19 10:05:18;;;;;;;9.50;4.57;;;;;;;18.41;35.64;99683.66;5011925;28;20026;-79
2022/10/19 10:07:43;;;;;;;8.20;4.72;;;;;;;18.92;35.53;99754.63;5011328;28;20042;-78
2022/10/19 10:10:18;;;;;;;13.27;5.03;;;;;;;18.95;35.46;99746.13;5008141;28;20105;-78
2022/10/19 10:12:45;;;;;;;6.20;4.70;;;;;;;18.61;35.30;99669.22;5010883;28;20018;-79
2022/10/19 10:15:17;;;;;;;17.48;13.70;;;;;;;19.02;35.26;99705.91;5011190;28;20387;-79
2022/10/19 10:17:45;;;;;;;;;;;;;;;19.29;34.43;99749.13;5010205;28;20025;-78
2022/10/19 10:20:22;;;;;;;13.65;7.40;;;;;;;19.42;34.70;99746.28;5011430;28;20379;-79
2022/10/19 10:22:56;;;;;;;11.23;7.55;;;;;;;19.55;34.98;99745.28;5010216;28;20024;-78
2022/10/19 10:25:28;;;;;;;7.80;4.40;;;;;;;19.46;34.57;99711.81;5004893;28;20030;-78
2022/10/19 10:28:00;;;;;;;10.05;5.07;;;;;;;19.75;34.49;99739.59;4999677;28;20084;-78
2022/10/19 10:30:31;;;;;;;9.20;4.85;;;;;;;19.25;34.27;99643.56;5010133;28;20025;-79
2022/10/19 10:32:57;;;;;;;7.13;4.78;;;;;;;19.54;34.17;99671.34;5011348;28;20030;-79
2022/10/19 10:35:33;;;;;;;7.60;5.43;;;;;;;19.67;33.98;99693.34;5010395;28;20037;-79
2022/10/19 10:38:15;;;;;;;8.85;5.25;;;;;;;19.76;33.47;99687.63;5011384;28;20064;-78
2022/10/19 10:40:50;;;;;;;8.15;4.55;;;;;;;19.93;33.66;99685.88;5009249;28;20514;-78
2022/10/19 10:43:19;;;;;;;6.65;4.40;;;;;;;19.80;33.44;99643.25;5008913;28;20092;-78
2022/10/19 10:45:47;;;;;;;10.68;4.60;;;;;;;19.93;33.28;99654.53;5003570;28;20033;-79
2022/10/19 10:48:24;;;;;;;7.70;4.32;;;;;;;20.39;33.06;99713.66;5009576;28;20501;-79
2022/10/19 10:50:50;;;;;;;6.70;4.70;;;;;;;20.04;32.94;99638.66;4995218;28;20034;-78
2022/10/19 10:53:39;;;;;;;8.95;4.20;;;;;;;20.54;32.75;99705.94;4999082;28;20093;-78
2022/10/19 10:56:20;;;;;;;7.55;4.28;;;;;;;20.40;32.64;99667.84;5004744;28;20033;-77
2022/10/19 10:58:57;;;;;;;11.70;5.57;;;;;;;20.76;32.55;99701.53;5005817;28;20104;-79
2022/10/19 11:01:32;;;;;;;5.15;3.50;;;;;;;20.74;31.66;99684.84;5021647;28;20125;-78
2022/10/19 11:04:11;;;;;;;7.28;3.80;;;;;;;20.28;31.96;99629.50;5014757;28;20117;-79
2022/10/19 11:06:43;;;;;;;5.90;3.30;;;;;;;20.38;31.92;99644.97;5012869;28;20046;-79
2022/10/19 11:09:17;;;;;;;7.88;5.97;;;;;;;20.22;31.51;99611.69;5015000;28;20479;-78
2022/10/19 11:11:46;;;;;;;9.43;5.88;;;;;;;20.52;31.26;99652.53;5013180;28;20029;-79
2022/10/19 11:14:22;;;;;;;4.15;3.67;;;;;;;20.68;31.14;99663.53;5015325;28;20034;-78
2022/10/19 11:16:51;;;;;;;10.10;7.28;;;;;;;20.36;31.27;99623.75;5010990;28;20029;-78
2022/10/19 11:19:23;;;;;;;6.30;3.70;;;;;;;19.77;31.11;99536.56;5014230;28;20052;-78
2022/10/19 11:22:19;;;;;;;4.03;3.10;;;;;;;20.49;28.90;99658.38;5011118;28;20109;-78
2022/10/19 11:25:29;;;;;;;5.07;4.43;;;;;;;20.40;29.90;99649.06;5009025;28;20032;-78
2022/10/19 11:28:31;;;;;;;7.45;4.57;;;;;;;20.10;31.04;99619.78;5008011;28;20022;-79
2022/10/19 11:31:05;;;;;;;5.53;4.45;;;;;;;20.29;30.34;99648.03;5010431;28;20461;-78
2022/10/19 11:33:55;;;;;;;6.45;4.00;;;;;;;20.03;29.34;99618.25;5012623;28;20048;-78
2022/10/19 11:36:41;;;;;;;6.40;4.50;;;;;;;20.21;29.98;99642.25;5013245;28;20044;-79
2022/10/19 11:39:30;;;;;;;6.05;4.32;;;;;;;20.17;30.33;99647.25;5014052;28;20033;-79
2022/10/19 11:42:14;;;;;;;5.95;5.30;;;;;;;20.12;30.36;99647.16;5009592;28;20434;-78